Terminal Aerodrome Forecast
Issued by NWS

Home | Current Version | Previous Version | Text Only | Print | Product List | Glossary Off
Versions: 1 2 3 4 5 6 7 8 9 10 11 12 13 14 15 16 17 18

000
FTUS43 KGRB 190520
TAFRHI
TAF
KRHI 190520Z 1906/2006 30009G16KT P6SM OVC025
      TEMPO 1906/1908 BKN015
     FM191200 28009KT P6SM SCT035
     FM192000 26008KT P6SM SCT050 BKN090
     FM200200 24004KT P6SM SCT090=

USA.gov is the U.S. government's official web portal to all federal, state and local government web resources and services.